createdAt,value
2023-05-14T00:01:36.374Z,100969.22
2023-05-14T00:04:41.394Z,100968.66
2023-05-14T00:07:45.567Z,100964.81
2023-05-14T00:11:00.770Z,100971.50
2023-05-14T00:14:08.149Z,100965.91
2023-05-14T00:17:15.162Z,100962.75
2023-05-14T00:20:28.496Z,100940.03
2023-05-14T00:24:01.829Z,100958.66
2023-05-14T00:31:23.897Z,100955.59
2023-05-14T00:35:01.447Z,100955.66
2023-05-14T00:38:27.971Z,100941.22
2023-05-14T00:42:27.251Z,100955.47
2023-05-14T00:45:51.348Z,100935.78
2023-05-14T00:49:22.722Z,100957.41
2023-05-14T00:52:33.162Z,100956.22
2023-05-14T00:55:58.494Z,100950.06
2023-05-14T00:59:19.839Z,100937.91
2023-05-14T01:02:32.971Z,100937.88
2023-05-14T01:06:14.724Z,100931.53
2023-05-14T01:09:54.536Z,100933.75
2023-05-14T01:13:17.060Z,100933.81
2023-05-14T01:16:20.960Z,100932.97
2023-05-14T01:19:52.142Z,100934.78
2023-05-14T01:22:56.429Z,100930.25
2023-05-14T01:26:02.503Z,100925.09
2023-05-14T01:29:20.522Z,100926.31
2023-05-14T01:32:26.174Z,100918.47
2023-05-14T01:35:31.482Z,100927.59
2023-05-14T01:38:36.913Z,100929.56
2023-05-14T01:41:40.773Z,100932.19
2023-05-14T01:44:44.590Z,100924.63
2023-05-14T01:47:50.044Z,100925.59
2023-05-14T01:50:54.120Z,100923.56
2023-05-14T01:53:58.423Z,100917.09
2023-05-14T01:57:02.517Z,100918.09
2023-05-14T02:00:07.125Z,100925.28
2023-05-14T02:03:17.138Z,100935.72
2023-05-14T02:06:23.000Z,100930.13
2023-05-14T02:09:29.660Z,100925.06
2023-05-14T02:12:33.455Z,100926.78
2023-05-14T02:15:37.361Z,100913.19
2023-05-14T02:18:44.321Z,100909.38
2023-05-14T02:21:49.525Z,100907.53
2023-05-14T02:24:52.790Z,100903.72
2023-05-14T02:27:55.964Z,100906.38
2023-05-14T02:31:01.537Z,100898.97
2023-05-14T02:34:06.853Z,100895.59
2023-05-14T02:37:13.077Z,100890.69
2023-05-14T02:40:16.579Z,100898.44
2023-05-14T02:43:20.665Z,100894.09
2023-05-14T02:46:24.716Z,100889.59
2023-05-14T02:49:28.565Z,100886.88
2023-05-14T02:52:31.917Z,100879.94
2023-05-14T02:55:36.855Z,100881.69
2023-05-14T02:58:43.083Z,100870.56
2023-05-14T03:01:46.648Z,100865.63
2023-05-14T03:04:50.995Z,100856.47
2023-05-14T03:07:54.558Z,100872.78
2023-05-14T03:10:58.070Z,100878.03
2023-05-14T03:14:01.956Z,100870.41
2023-05-14T03:17:05.439Z,100875.72
2023-05-14T03:20:09.235Z,100865.28
2023-05-14T03:23:12.617Z,100876.41
2023-05-14T03:26:15.906Z,100869.44
2023-05-14T03:29:19.183Z,100864.06
2023-05-14T03:32:22.513Z,100868.91
2023-05-14T03:35:25.933Z,100867.72
2023-05-14T03:38:29.104Z,100865.47
2023-05-14T03:41:32.498Z,100873.72
2023-05-14T03:44:36.077Z,100880.63
2023-05-14T03:47:40.228Z,100880.50
2023-05-14T03:50:43.871Z,100879.91
2023-05-14T03:53:47.857Z,100883.59
2023-05-14T03:56:51.054Z,100884.41
2023-05-14T03:59:54.621Z,100883.75
2023-05-14T04:02:57.915Z,100876.25
2023-05-14T04:06:01.896Z,100874.94
2023-05-14T04:09:04.808Z,100874.53
2023-05-14T04:12:08.281Z,100876.00
2023-05-14T04:15:11.743Z,100878.91
2023-05-14T04:18:15.059Z,100886.09
2023-05-14T04:21:18.498Z,100888.91
2023-05-14T04:24:21.463Z,100883.31
2023-05-14T04:27:24.645Z,100890.53
2023-05-14T04:30:27.545Z,100887.28
2023-05-14T04:33:30.878Z,100895.97
2023-05-14T04:36:33.899Z,100885.06
2023-05-14T04:39:37.045Z,100885.91
2023-05-14T04:42:39.839Z,100868.94
2023-05-14T04:45:43.416Z,100872.53
2023-05-14T04:48:46.299Z,100874.16
2023-05-14T04:51:49.652Z,100872.28
2023-05-14T04:54:52.778Z,100870.69
2023-05-14T04:57:55.747Z,100873.34
2023-05-14T05:00:59.820Z,100867.66
2023-05-14T05:04:03.221Z,100858.66
2023-05-14T05:07:06.720Z,100854.72
2023-05-14T05:10:10.288Z,100855.66
2023-05-14T05:13:13.637Z,100852.59
2023-05-14T05:16:17.542Z,100847.69
2023-05-14T05:19:29.092Z,100852.38
2023-05-14T05:22:36.710Z,100850.28
2023-05-14T05:25:42.961Z,100839.78
2023-05-14T05:28:46.314Z,100842.72
2023-05-14T05:31:50.560Z,100841.13
2023-05-14T05:34:53.919Z,100836.22
2023-05-14T05:38:00.480Z,100827.06
2023-05-14T05:41:05.362Z,100820.22
2023-05-14T05:44:09.586Z,100812.13
2023-05-14T05:47:13.459Z,100823.72
2023-05-14T05:50:18.821Z,100817.06
2023-05-14T05:53:23.618Z,100820.81
2023-05-14T05:56:27.390Z,100827.97
2023-05-14T05:59:31.084Z,100821.06
2023-05-14T06:02:34.765Z,100827.41
2023-05-14T06:05:38.541Z,100831.81
2023-05-14T06:08:42.758Z,100829.22
2023-05-14T06:11:46.665Z,100824.56
2023-05-14T06:14:55.667Z,100817.88
2023-05-14T06:17:59.181Z,100807.41
2023-05-14T06:21:02.537Z,100805.38
2023-05-14T06:24:08.996Z,100805.91
2023-05-14T06:27:12.264Z,100809.63
2023-05-14T06:30:15.861Z,100811.72
2023-05-14T06:33:20.569Z,100812.16
2023-05-14T06:36:23.534Z,100796.59
2023-05-14T06:39:27.113Z,100798.22
2023-05-14T06:42:30.389Z,100794.28
2023-05-14T06:45:34.602Z,100794.44
2023-05-14T06:48:37.947Z,100795.56
2023-05-14T06:51:42.076Z,100798.47
2023-05-14T06:54:45.153Z,100800.66
2023-05-14T06:57:48.119Z,100794.25
2023-05-14T07:00:51.299Z,100796.97
2023-05-14T07:03:54.524Z,100793.53
2023-05-14T07:06:58.070Z,100778.97
2023-05-14T07:10:01.676Z,100783.81
2023-05-14T07:13:04.729Z,100782.47
2023-05-14T07:16:12.115Z,100777.53
2023-05-14T07:19:15.223Z,100777.66
2023-05-14T07:22:18.568Z,100767.22
2023-05-14T07:25:21.336Z,100784.31
2023-05-14T07:28:24.414Z,100781.47
2023-05-14T07:31:27.406Z,100780.84
2023-05-14T07:34:30.550Z,100780.66
2023-05-14T07:37:33.932Z,100781.19
2023-05-14T07:40:37.007Z,100780.06
2023-05-14T07:43:40.703Z,100781.81
2023-05-14T07:46:44.175Z,100774.09
2023-05-14T07:49:47.456Z,100775.03
2023-05-14T07:52:50.940Z,100779.47
2023-05-14T07:55:54.940Z,100771.28
2023-05-14T07:58:58.322Z,100765.97
2023-05-14T08:02:01.948Z,100766.25
2023-05-14T08:05:05.596Z,100764.25
2023-05-14T08:08:09.383Z,100759.59
2023-05-14T08:11:12.918Z,100753.06
2023-05-14T08:14:16.257Z,100752.22
2023-05-14T08:17:19.949Z,100753.41
2023-05-14T08:20:24.600Z,100744.88
2023-05-14T08:23:28.661Z,100737.13
2023-05-14T08:26:32.132Z,100735.38
2023-05-14T08:29:35.624Z,100737.97
2023-05-14T08:32:39.673Z,100730.31
2023-05-14T08:35:42.903Z,100731.06
2023-05-14T08:38:46.175Z,100729.38
2023-05-14T08:41:49.666Z,100723.16
2023-05-14T08:45:03.716Z,100718.22
2023-05-14T08:48:11.323Z,100717.06
2023-05-14T08:51:14.851Z,100715.53
2023-05-14T08:54:18.636Z,100715.00
2023-05-14T08:57:26.821Z,100712.59
2023-05-14T09:00:30.208Z,100719.44
2023-05-14T09:03:34.014Z,100707.97
2023-05-14T09:06:38.008Z,100710.22
2023-05-14T09:09:41.606Z,100706.16
2023-05-14T09:12:44.764Z,100712.66
2023-05-14T09:15:51.499Z,100700.50
2023-05-14T09:18:55.046Z,100700.09
2023-05-14T09:22:01.567Z,100699.00
2023-05-14T09:25:11.386Z,100691.00
2023-05-14T09:28:17.539Z,100680.19
2023-05-14T09:31:20.791Z,100672.72
2023-05-14T09:34:24.621Z,100672.53
2023-05-14T09:37:28.751Z,100673.09
2023-05-14T09:40:31.619Z,100666.41
2023-05-14T09:43:34.387Z,100655.09
2023-05-14T09:46:37.422Z,100637.91
2023-05-14T09:49:40.543Z,100638.53
2023-05-14T09:52:43.511Z,100632.03
2023-05-14T09:55:47.252Z,100622.34
2023-05-14T09:58:50.168Z,100625.81
2023-05-14T10:01:54.431Z,100623.81
2023-05-14T10:05:02.798Z,100620.06
2023-05-14T10:08:13.790Z,100612.59
2023-05-14T10:11:25.355Z,100609.09
2023-05-14T10:14:36.519Z,100611.66
2023-05-14T10:17:43.595Z,100597.91
2023-05-14T10:21:06.568Z,100598.09
2023-05-14T10:24:10.600Z,100591.41
2023-05-14T10:27:15.619Z,100590.03
2023-05-14T10:30:25.981Z,100592.72
2023-05-14T10:33:29.644Z,100588.22
2023-05-14T10:36:36.039Z,100584.94
2023-05-14T10:39:59.535Z,100572.81
2023-05-14T10:43:04.498Z,100559.09
2023-05-14T10:46:10.348Z,100555.53
2023-05-14T10:49:25.792Z,100548.84
2023-05-14T10:52:46.658Z,100550.06
2023-05-14T10:55:58.157Z,100546.66
2023-05-14T10:59:29.554Z,100542.78
2023-05-14T11:02:57.091Z,100524.59
2023-05-14T11:06:04.272Z,100508.19
2023-05-14T11:09:08.519Z,100500.78
2023-05-14T11:12:12.410Z,100511.56
2023-05-14T11:15:20.562Z,100492.03
2023-05-14T11:18:31.918Z,100494.53
2023-05-14T11:21:39.780Z,100480.16
2023-05-14T11:24:43.731Z,100487.69
2023-05-14T11:27:48.419Z,100458.69
2023-05-14T11:31:01.033Z,100477.06
2023-05-14T11:34:06.141Z,100476.50
2023-05-14T11:37:12.256Z,100469.88
2023-05-14T11:40:17.181Z,100476.06
2023-05-14T11:43:20.768Z,100451.34
2023-05-14T11:46:26.775Z,100461.97
2023-05-14T11:49:30.403Z,100456.56
2023-05-14T11:52:39.619Z,100464.03
2023-05-14T11:55:42.641Z,100470.09
2023-05-14T11:58:49.605Z,100468.06
2023-05-14T12:01:52.908Z,100468.59
2023-05-14T12:04:56.087Z,100460.72
2023-05-14T12:07:59.108Z,100454.50
2023-05-14T12:11:03.945Z,100454.25
2023-05-14T12:14:24.405Z,100451.47
2023-05-14T12:17:28.033Z,100449.94
2023-05-14T12:20:31.673Z,100450.22
2023-05-14T12:23:34.968Z,100455.78
2023-05-14T12:26:39.124Z,100453.44
2023-05-14T12:29:43.633Z,100443.06
2023-05-14T12:32:47.194Z,100436.16
2023-05-14T12:35:50.861Z,100438.78
2023-05-14T12:39:02.044Z,100425.38
2023-05-14T12:42:05.290Z,100425.13
2023-05-14T12:45:09.034Z,100417.91
2023-05-14T12:48:13.377Z,100422.06
2023-05-14T12:51:16.803Z,100412.09
2023-05-14T12:54:20.152Z,100411.44
2023-05-14T12:57:23.580Z,100412.00
2023-05-14T13:00:27.264Z,100413.38
2023-05-14T13:03:30.843Z,100410.59
2023-05-14T13:06:34.276Z,100411.84
2023-05-14T13:09:40.281Z,100407.25
2023-05-14T13:12:43.947Z,100406.69
2023-05-14T13:15:47.556Z,100406.13
2023-05-14T13:18:51.401Z,100404.06
2023-05-14T13:21:55.144Z,100392.88
2023-05-14T13:24:59.129Z,100390.34
2023-05-14T13:28:02.314Z,100385.81
2023-05-14T13:31:10.595Z,100381.22
2023-05-14T13:34:13.780Z,100386.38
2023-05-14T13:37:17.165Z,100385.25
2023-05-14T13:40:20.436Z,100379.75
2023-05-14T13:43:24.464Z,100374.53
2023-05-14T13:46:28.170Z,100377.94
2023-05-14T13:49:31.954Z,100378.94
2023-05-14T13:52:36.021Z,100367.19
2023-05-14T13:55:39.605Z,100370.22
2023-05-14T13:58:42.918Z,100368.56
2023-05-14T14:01:48.139Z,100363.59
2023-05-14T14:04:51.809Z,100364.88
2023-05-14T14:08:00.957Z,100362.25
2023-05-14T14:11:13.315Z,100348.13
2023-05-14T14:14:17.704Z,100349.81
2023-05-14T14:17:21.184Z,100359.63
2023-05-14T14:20:24.685Z,100362.25
2023-05-14T14:23:27.856Z,100360.28
2023-05-14T14:26:31.112Z,100349.22
2023-05-14T14:29:34.720Z,100350.88
2023-05-14T14:32:37.926Z,100331.53
2023-05-14T14:35:41.151Z,100340.38
2023-05-14T14:38:44.456Z,100322.38
2023-05-14T14:41:48.034Z,100313.81
2023-05-14T14:44:51.152Z,100329.69
2023-05-14T14:48:27.873Z,100329.31
2023-05-14T14:51:31.525Z,100332.91
2023-05-14T14:54:34.497Z,100333.16
2023-05-14T14:57:37.893Z,100332.28
2023-05-14T15:00:41.263Z,100337.66
2023-05-14T15:03:45.758Z,100345.19
2023-05-14T15:06:48.949Z,100347.03
2023-05-14T15:09:52.119Z,100352.31
2023-05-14T15:12:59.672Z,100360.66
2023-05-14T15:16:02.676Z,100361.88
2023-05-14T15:19:05.990Z,100372.25
2023-05-14T15:22:09.438Z,100361.13
2023-05-14T15:25:12.513Z,100364.81
2023-05-14T15:28:15.814Z,100367.19
2023-05-14T15:31:19.202Z,100359.25
2023-05-14T15:34:22.371Z,100370.38
2023-05-14T15:37:27.078Z,100361.00
2023-05-14T15:40:30.649Z,100358.25
2023-05-14T15:43:37.503Z,100359.06
2023-05-14T15:46:41.254Z,100346.94
2023-05-14T15:49:45.090Z,100353.69
2023-05-14T15:52:49.184Z,100357.81
2023-05-14T15:55:52.571Z,100353.47
2023-05-14T15:58:56.282Z,100342.28
2023-05-14T16:02:00.054Z,100322.66
2023-05-14T16:05:04.154Z,100321.88
2023-05-14T16:08:07.443Z,100317.50
2023-05-14T16:11:10.829Z,100321.44
2023-05-14T16:14:14.303Z,100334.69
2023-05-14T16:17:17.675Z,100323.44
2023-05-14T16:20:20.863Z,100328.66
2023-05-14T16:23:24.133Z,100317.75
2023-05-14T16:26:27.410Z,100314.91
2023-05-14T16:29:31.516Z,100320.00
2023-05-14T16:32:34.810Z,100319.00
2023-05-14T16:35:38.070Z,100320.06
2023-05-14T16:38:52.322Z,100320.28
2023-05-14T16:42:00.385Z,100312.47
2023-05-14T16:45:04.380Z,100310.56
2023-05-14T16:48:10.746Z,100309.69
2023-05-14T16:51:14.120Z,100300.53
2023-05-14T16:54:17.489Z,100303.13
2023-05-14T16:57:20.765Z,100301.78
2023-05-14T17:00:24.450Z,100291.13
2023-05-14T17:03:28.251Z,100288.19
2023-05-14T17:06:32.141Z,100290.69
2023-05-14T17:09:35.956Z,100283.53
2023-05-14T17:12:39.317Z,100265.59
2023-05-14T17:15:42.827Z,100263.97
2023-05-14T17:18:46.208Z,100246.91
2023-05-14T17:21:49.472Z,100244.53
2023-05-14T17:24:52.536Z,100253.88
2023-05-14T17:27:57.038Z,100254.50
2023-05-14T17:31:00.062Z,100246.00
2023-05-14T17:34:03.291Z,100249.72
2023-05-14T17:37:06.785Z,100251.28
2023-05-14T17:40:10.260Z,100242.75
2023-05-14T17:43:13.774Z,100242.63
2023-05-14T17:46:16.856Z,100239.72
2023-05-14T17:49:20.029Z,100238.56
2023-05-14T17:52:23.406Z,100238.06
2023-05-14T17:55:27.297Z,100243.25
2023-05-14T17:58:33.741Z,100245.78
2023-05-14T18:01:36.938Z,100241.38
2023-05-14T18:04:47.675Z,100248.59
2023-05-14T18:07:56.181Z,100254.50
2023-05-14T18:11:01.401Z,100241.38
2023-05-14T18:14:07.960Z,100252.13
2023-05-14T18:17:11.802Z,100250.44
2023-05-14T18:20:15.136Z,100242.13
2023-05-14T18:23:18.830Z,100239.06
2023-05-14T18:26:23.446Z,100238.88
2023-05-14T18:29:30.513Z,100244.56
2023-05-14T18:32:35.792Z,100248.94
2023-05-14T18:35:39.326Z,100251.44
2023-05-14T18:38:43.109Z,100250.75
2023-05-14T18:41:46.708Z,100258.22
2023-05-14T18:44:50.179Z,100253.78
2023-05-14T18:47:53.619Z,100261.16
2023-05-14T18:50:56.927Z,100251.06
2023-05-14T18:54:00.510Z,100257.50
2023-05-14T18:57:04.432Z,100248.97
2023-05-14T19:00:08.525Z,100247.19
2023-05-14T19:03:14.817Z,100241.47
2023-05-14T19:06:18.357Z,100241.75
2023-05-14T19:09:22.144Z,100238.38
2023-05-14T19:12:26.950Z,100246.97
2023-05-14T19:15:31.164Z,100245.28
2023-05-14T19:18:36.183Z,100235.50
2023-05-14T19:21:43.146Z,100237.25
2023-05-14T19:24:46.623Z,100229.66
2023-05-14T19:27:51.656Z,100228.94
2023-05-14T19:30:57.353Z,100226.63
2023-05-14T19:34:00.574Z,100214.81
2023-05-14T19:37:04.271Z,100201.38
2023-05-14T19:40:08.664Z,100194.72
2023-05-14T19:43:12.262Z,100200.75
2023-05-14T19:46:15.925Z,100193.47
2023-05-14T19:49:18.980Z,100197.63
2023-05-14T19:52:22.103Z,100190.69
2023-05-14T19:55:25.913Z,100193.59
2023-05-14T19:58:29.042Z,100190.16
2023-05-14T20:01:32.789Z,100182.25
2023-05-14T20:04:35.948Z,100163.47
2023-05-14T20:07:40.353Z,100163.19
2023-05-14T20:10:49.000Z,100171.41
2023-05-14T20:13:52.381Z,100161.88
2023-05-14T20:16:58.450Z,100157.53
2023-05-14T20:20:01.808Z,100153.13
2023-05-14T20:23:04.999Z,100149.00
2023-05-14T20:26:08.183Z,100147.22
2023-05-14T20:29:13.826Z,100144.63
2023-05-14T20:32:17.068Z,100125.34
2023-05-14T20:35:20.490Z,100123.38
2023-05-14T20:38:23.616Z,100115.78
2023-05-14T20:41:27.054Z,100116.72
2023-05-14T20:44:30.688Z,100107.91
2023-05-14T20:47:34.450Z,100107.50
2023-05-14T20:50:37.766Z,100105.44
2023-05-14T20:53:41.408Z,100094.22
2023-05-14T20:56:44.838Z,100098.16
2023-05-14T20:59:49.103Z,100111.22
2023-05-14T21:02:52.816Z,100102.00
2023-05-14T21:06:00.707Z,100087.56
2023-05-14T21:09:04.406Z,100081.63
2023-05-14T21:12:08.609Z,100070.72
2023-05-14T21:15:12.506Z,100064.81
2023-05-14T21:18:16.283Z,100065.84
2023-05-14T21:21:19.967Z,100061.50
2023-05-14T21:24:23.760Z,100066.69
2023-05-14T21:27:31.246Z,100055.09
2023-05-14T21:30:35.031Z,100055.03
2023-05-14T21:33:38.924Z,100045.13
2023-05-14T21:36:51.060Z,100041.41
2023-05-14T21:39:58.782Z,100033.41
2023-05-14T21:43:03.190Z,100038.19
2023-05-14T21:46:10.924Z,100039.03
2023-05-14T21:49:14.818Z,100029.69
2023-05-14T21:52:19.637Z,100019.94
2023-05-14T21:55:25.023Z,100019.94
2023-05-14T21:58:31.820Z,100031.09
2023-05-14T22:02:04.963Z,100026.66
2023-05-14T22:05:12.791Z,100012.22
2023-05-14T22:08:21.671Z,100022.63
2023-05-14T22:11:32.272Z,100019.50
2023-05-14T22:14:42.972Z,100018.34
2023-05-14T22:17:54.073Z,100020.13
2023-05-14T22:21:05.486Z,100013.75
2023-05-14T22:24:16.543Z,99991.94
2023-05-14T22:27:20.742Z,100004.91
2023-05-14T22:30:25.251Z,99997.56
2023-05-14T22:33:33.608Z,99992.38
2023-05-14T22:36:37.540Z,99983.34
2023-05-14T22:39:40.921Z,99981.25
2023-05-14T22:42:44.960Z,99985.63
2023-05-14T22:45:48.504Z,99982.59
2023-05-14T22:48:52.249Z,99983.44
2023-05-14T22:51:56.089Z,99976.25
2023-05-14T22:54:59.827Z,99970.22
2023-05-14T22:58:05.359Z,99971.69
2023-05-14T23:01:09.974Z,99971.91
2023-05-14T23:04:21.510Z,99973.44
2023-05-14T23:07:31.694Z,99965.47
2023-05-14T23:10:38.744Z,99966.94
2023-05-14T23:13:45.799Z,99957.59
2023-05-14T23:17:05.672Z,99955.56
2023-05-14T23:20:14.002Z,99926.72
2023-05-14T23:23:30.960Z,99937.09
2023-05-14T23:26:35.857Z,99945.72
2023-05-14T23:29:54.796Z,99931.38
2023-05-14T23:33:10.209Z,99935.53
2023-05-14T23:36:18.150Z,99935.63
2023-05-14T23:39:23.365Z,99919.34
2023-05-14T23:42:34.002Z,99938.34
2023-05-14T23:45:42.974Z,99937.81
2023-05-14T23:48:52.754Z,99927.63
2023-05-14T23:51:57.351Z,99924.19
2023-05-14T23:55:57.090Z,99935.41
2023-05-14T23:59:36.361Z,99943.41
